Boden, Illinois
Current Conditions -  °F | °C
As of 5:52 AM on Sunday 21 Dec 2014 (Local Time) from KMLI Reporting Station
Haze Haze  
Wind Chill: -2°   Ceiling: 3500
Heat Index:   Visibility: 6mi
Dew Point:   Wind: 8mph
Humidity: 89%   Direction: 160°SSE
Pressure: 30.13"   Gusts: NA
Location:  41.2864°N, 90.4945°W
Report Text: KMLI 211152Z 16007KT 6SM BR OVC035 02/00 A3013 RMK AO2 SLP207 T00170000 10017 20011 56013
Loading
Personal Weather Stations






























Interactive Weather Map New forecast layout! Learn more

10-Day Weather Forecast

Advertisements
Track Severe Weather on mobile